Time;durP1;ratioP1;P1;durP2;ratioP2;P2;SDS_P1;SDS_P2;PMS_P1;PMS_P2;Temp;Humidity;BMP_temperature;BMP_pressure;BME280_temperature;BME280_humidity;BME280_pressure;Samples;Min_cycle;Max_cycle;Signal;HPM_P1;HPM_P2
2022/11/19 00:02:02;;;;;;;6.43;3.55;;;6.20;84.20;;;;;;5049156;28;20123;-69
2022/11/19 00:04:36;;;;;;;6.70;2.42;;;6.30;84.50;;;;;;5052015;28;20032;-67
2022/11/19 00:07:03;;;;;;;5.90;3.13;;;6.30;84.50;;;;;;5052859;28;20124;-67
2022/11/19 00:09:30;;;;;;;7.00;3.28;;;6.30;84.60;;;;;;5050644;28;20047;-68
2022/11/19 00:14:44;;;;;;;5.20;3.05;;;6.40;84.00;;;;;;5052931;28;20037;-68
2022/11/19 00:17:11;;;;;;;6.97;3.58;;;6.30;84.20;;;;;;5051658;28;20052;-68
2022/11/19 00:19:40;;;;;;;7.95;3.72;;;6.20;84.40;;;;;;5051312;28;20914;-68
2022/11/19 00:22:10;;;;;;;6.32;3.35;;;6.20;84.30;;;;;;5045733;28;20045;-69
2022/11/19 00:24:38;;;;;;;6.03;3.40;;;6.20;84.30;;;;;;5051760;28;20556;-69
2022/11/19 00:27:05;;;;;;;6.55;3.38;;;6.20;84.30;;;;;;5052355;28;20479;-68
2022/11/19 00:29:32;;;;;;;8.00;4.15;;;6.20;84.50;;;;;;5051315;28;20122;-69
2022/11/19 00:32:00;;;;;;;7.22;3.88;;;6.10;84.30;;;;;;5045737;28;20041;-69
2022/11/19 00:34:28;;;;;;;6.78;3.80;;;6.10;84.30;;;;;;5050708;28;20044;-68
2022/11/19 00:36:55;;;;;;;8.65;4.18;;;6.10;84.30;;;;;;5051772;28;20511;-68
2022/11/19 00:39:21;;;;;;;7.15;3.97;;;6.10;84.20;;;;;;5048484;28;20067;-69
2022/11/19 00:41:49;;;;;;;7.75;4.50;;;6.00;84.20;;;;;;5050456;28;20052;-67
2022/11/19 00:44:18;;;;;;;10.45;4.63;;;6.10;84.50;;;;;;5050693;28;20041;-60
2022/11/19 00:46:45;;;;;;;9.30;4.53;;;6.00;84.20;;;;;;5048689;28;20487;-59
2022/11/19 00:49:17;;;;;;;8.57;4.28;;;6.00;84.20;;;;;;5049952;28;20049;-60
2022/11/19 00:51:46;;;;;;;8.50;4.90;;;6.00;84.10;;;;;;5049544;28;20041;-59
2022/11/19 00:54:13;;;;;;;9.90;5.57;;;6.00;84.10;;;;;;5047520;28;20111;-60
2022/11/19 00:56:42;;;;;;;8.93;4.70;;;6.00;84.10;;;;;;5050144;28;20064;-61
2022/11/19 00:59:09;;;;;;;8.60;5.07;;;6.00;84.00;;;;;;5047931;28;20052;-61
2022/11/19 01:01:39;;;;;;;10.60;5.38;;;5.90;83.50;;;;;;5048904;28;20055;-61
2022/11/19 01:04:06;;;;;;;10.82;5.53;;;5.90;83.80;;;;;;5049998;28;20047;-61
2022/11/19 01:06:35;;;;;;;10.13;5.22;;;5.90;83.80;;;;;;5051742;28;20077;-62
2022/11/19 01:09:02;;;;;;;8.57;5.43;;;5.90;83.80;;;;;;5045974;28;20052;-62
2022/11/19 01:11:30;;;;;;;8.90;5.22;;;5.90;84.10;;;;;;5044697;28;20123;-62
2022/11/19 01:13:58;;;;;;;9.50;5.53;;;5.90;84.00;;;;;;5047542;28;20063;-61
2022/11/19 01:16:28;;;;;;;10.02;5.60;;;5.90;83.90;;;;;;5047408;28;20076;-72
2022/11/19 01:18:55;;;;;;;9.73;5.53;;;5.80;84.20;;;;;;5039808;28;20124;-71
2022/11/19 01:21:25;;;;;;;9.18;5.70;;;5.80;84.10;;;;;;5044811;28;20052;-64
2022/11/19 01:23:54;;;;;;;11.98;5.28;;;5.80;84.30;;;;;;5046943;28;20064;-62
2022/11/19 01:26:21;;;;;;;9.57;5.13;;;5.90;84.20;;;;;;5047210;28;20052;-63
2022/11/19 01:28:48;;;;;;;9.32;5.18;;;5.80;84.20;;;;;;5047665;28;20052;-62
2022/11/19 01:31:17;;;;;;;8.77;4.93;;;5.80;84.30;;;;;;5046711;28;20087;-71
2022/11/19 01:33:44;;;;;;;10.07;5.35;;;5.90;84.20;;;;;;5041198;28;20045;-71
2022/11/19 01:36:14;;;;;;;9.70;5.43;;;5.90;84.40;;;;;;5041475;28;20111;-61
2022/11/19 01:38:49;;;;;;;8.45;4.85;;;5.90;84.60;;;;;;5045674;28;20064;-62
2022/11/19 01:41:18;;;;;;;11.10;5.03;;;5.90;84.70;;;;;;5048519;28;20504;-69
2022/11/19 01:43:46;;;;;;;7.63;4.63;;;5.90;84.60;;;;;;5046075;28;20150;-68
2022/11/19 01:46:15;;;;;;;10.18;4.63;;;5.90;84.60;;;;;;5048115;28;20047;-69
2022/11/19 01:48:46;;;;;;;9.70;5.03;;;5.90;84.60;;;;;;5050017;28;20055;-68
2022/11/19 01:51:16;;;;;;;9.48;5.35;;;5.80;84.50;;;;;;5045736;28;20045;-69
2022/11/19 01:53:45;;;;;;;8.43;4.50;;;5.80;84.60;;;;;;5049977;28;20037;-69
2022/11/19 01:56:14;;;;;;;8.18;5.03;;;5.80;84.50;;;;;;5047263;28;20063;-68
2022/11/19 01:58:45;;;;;;;8.15;4.50;;;5.80;84.60;;;;;;5049682;28;20454;-69
2022/11/19 02:01:13;;;;;;;9.23;4.85;;;5.90;84.40;;;;;;5049870;28;20519;-68
2022/11/19 02:03:40;;;;;;;8.23;4.50;;;5.80;84.60;;;;;;5042225;28;20124;-69
2022/11/19 02:06:08;;;;;;;10.48;4.78;;;5.80;84.40;;;;;;5049303;28;20052;-69
2022/11/19 02:08:40;;;;;;;9.00;4.65;;;5.80;84.40;;;;;;5045788;28;20434;-68
2022/11/19 02:11:33;;;;;;;10.93;4.78;;;5.70;84.70;;;;;;5046526;28;20072;-68
2022/11/19 02:14:12;;;;;;;8.10;4.93;;;5.70;84.80;;;;;;5026247;28;20041;-69
2022/11/19 02:16:46;;;;;;;9.20;4.93;;;5.70;84.60;;;;;;5046520;28;20049;-69
2022/11/19 02:19:31;;;;;;;11.27;5.15;;;5.70;84.80;;;;;;5046174;28;20053;-70
2022/11/19 02:22:14;;;;;;;9.88;5.55;;;5.70;84.90;;;;;;5048245;28;20055;-63
2022/11/19 02:24:50;;;;;;;9.43;4.68;;;5.70;84.90;;;;;;5048894;28;20098;-63
2022/11/19 02:27:53;;;;;;;10.07;5.38;;;5.70;85.00;;;;;;5045991;28;20179;-64
2022/11/19 02:30:22;;;;;;;9.80;5.07;;;5.70;84.90;;;;;;5006572;28;20048;-62
2022/11/19 02:32:57;;;;;;;10.02;5.82;;;5.80;84.70;;;;;;5039124;28;20145;-62
2022/11/19 02:35:35;;;;;;;11.00;5.88;;;5.70;84.60;;;;;;5041528;28;20037;-63
2022/11/19 02:38:08;;;;;;;13.48;5.80;;;5.70;84.50;;;;;;5046955;28;20077;-63
2022/11/19 02:40:38;;;;;;;12.23;6.47;;;5.70;84.70;;;;;;5043511;28;20075;-63
2022/11/19 02:43:10;;;;;;;;;;;5.70;84.40;;;;;;5042846;28;20041;-64
2022/11/19 02:45:43;;;;;;;10.82;5.25;;;5.70;84.50;;;;;;5028812;28;19927;-60
2022/11/19 02:48:14;;;;;;;9.45;5.65;;;5.70;84.70;;;;;;5030408;28;20059;-60
2022/11/19 02:50:45;;;;;;;10.88;6.35;;;5.70;84.80;;;;;;5048264;28;20144;-61
2022/11/19 02:53:12;;;;;;;10.80;5.90;;;5.50;84.80;;;;;;5042841;28;20048;-62
2022/11/19 02:55:39;;;;;;;10.88;6.22;;;5.60;84.90;;;;;;5043972;28;20045;-61
2022/11/19 03:04:28;;;;;;;11.60;6.30;;;5.40;84.90;;;;;;5045732;28;20053;-62
2022/11/19 03:06:33;;;;;;;11.75;6.15;;;5.40;84.70;;;;;;5042717;28;20499;-61
2022/11/19 03:09:02;;;;;;;11.52;6.28;;;5.40;84.70;;;;;;5048620;28;20395;-61
2022/11/19 03:11:31;;;;;;;11.30;6.20;;;5.40;84.60;;;;;;5044367;28;20183;-61
2022/11/19 03:17:00;;;;;;;9.27;5.30;;;5.40;84.60;;;;;;5045896;28;20059;-60
2022/11/19 03:19:38;;;;;;;9.63;6.13;;;5.40;84.60;;;;;;5046948;28;20123;-60
2022/11/19 03:22:12;;;;;;;8.70;5.38;;;5.40;84.50;;;;;;5044185;28;20047;-60
2022/11/19 03:24:45;;;;;;;10.02;5.85;;;5.40;84.70;;;;;;5048421;28;20055;-60
2022/11/19 03:27:16;;;;;;;9.75;5.15;;;5.40;84.60;;;;;;5047910;28;20044;-62
2022/11/19 03:29:46;;;;;;;8.73;5.40;;;5.40;84.60;;;;;;5047358;28;20051;-61
2022/11/19 03:32:18;;;;;;;10.00;5.25;;;5.40;84.40;;;;;;5046715;28;20140;-61
2022/11/19 03:34:48;;;;;;;9.45;5.28;;;5.30;84.20;;;;;;5047373;28;20041;-62
2022/11/19 03:37:19;;;;;;;12.32;5.35;;;5.20;84.20;;;;;;5048656;28;20041;-64
2022/11/19 03:39:47;;;;;;;;;;;5.20;84.40;;;;;;5045348;28;20051;-65
2022/11/19 03:42:16;;;;;;;9.30;5.13;;;5.10;84.80;;;;;;5048393;28;19927;-64
2022/11/19 03:44:48;;;;;;;9.73;5.30;;;5.20;84.90;;;;;;5049949;28;20496;-65
2022/11/19 03:47:19;;;;;;;9.40;5.40;;;5.20;84.90;;;;;;5047490;28;20064;-66
2022/11/19 03:49:50;;;;;;;10.18;5.28;;;5.10;84.90;;;;;;5049003;28;20051;-65
2022/11/19 03:52:19;;;;;;;10.65;6.10;;;5.10;84.90;;;;;;5046247;28;20040;-69
2022/11/19 03:54:46;;;;;;;10.10;5.60;;;5.10;85.10;;;;;;5044064;28;20555;-70
2022/11/19 03:57:17;;;;;;;8.68;4.82;;;5.10;85.00;;;;;;5052330;28;20041;-70
2022/11/19 03:59:44;;;;;;;10.60;5.78;;;5.10;84.90;;;;;;5051073;28;20069;-69
2022/11/19 04:02:12;;;;;;;11.70;6.40;;;5.20;84.80;;;;;;5049460;28;20045;-61
2022/11/19 04:04:40;;;;;;;10.32;5.63;;;5.20;84.70;;;;;;5047166;28;20508;-60
2022/11/19 04:07:10;;;;;;;9.48;5.38;;;5.20;84.40;;;;;;5049999;28;20056;-59
2022/11/19 04:09:38;;;;;;;9.32;5.68;;;5.00;84.30;;;;;;5050080;28;20059;-59
2022/11/19 04:12:07;;;;;;;11.27;6.07;;;5.00;84.70;;;;;;5029870;28;20547;-59
2022/11/19 04:14:34;;;;;;;10.10;5.97;;;5.00;84.50;;;;;;5050356;28;20714;-60
2022/11/19 04:17:01;;;;;;;9.75;5.00;;;5.00;84.30;;;;;;5045295;28;20060;-61
2022/11/19 04:19:28;;;;;;;10.20;5.45;;;5.00;84.50;;;;;;5042653;28;20388;-61
2022/11/19 04:21:56;;;;;;;10.00;5.93;;;5.00;84.60;;;;;;5046496;28;20120;-61
2022/11/19 04:24:23;;;;;;;9.38;5.38;;;4.90;84.40;;;;;;5047558;28;20471;-61
2022/11/19 04:26:50;;;;;;;7.30;4.22;;;4.90;84.50;;;;;;5049212;28;20041;-61
2022/11/19 04:29:17;;;;;;;8.70;4.25;;;4.90;84.30;;;;;;5051099;28;20037;-60
2022/11/19 04:31:44;;;;;;;8.02;4.95;;;4.90;84.00;;;;;;5054008;28;20131;-60
2022/11/19 04:34:11;;;;;;;9.00;5.03;;;4.90;84.30;;;;;;5053461;28;20063;-61
2022/11/19 04:36:40;;;;;;;8.65;4.80;;;4.80;84.60;;;;;;5047027;28;20048;-60
2022/11/19 04:39:11;;;;;;;6.88;4.38;;;4.90;84.30;;;;;;5048596;28;20040;-61
2022/11/19 04:41:38;;;;;;;;;;;4.90;83.70;;;;;;5041894;28;20088;-60
2022/11/19 04:44:05;;;;;;;7.60;4.30;;;4.80;84.00;;;;;;5045652;28;19929;-61
2022/11/19 04:46:32;;;;;;;7.72;4.32;;;4.80;83.70;;;;;;5038684;28;20040;-60
2022/11/19 04:49:01;;;;;;;7.93;4.28;;;4.70;84.10;;;;;;5046976;28;20036;-60
2022/11/19 04:51:30;;;;;;;9.23;4.85;;;4.80;84.20;;;;;;5041050;28;20529;-61
2022/11/19 04:53:57;;;;;;;11.48;5.63;;;4.70;84.50;;;;;;5049061;28;20040;-61
2022/11/19 04:56:26;;;;;;;10.07;5.85;;;4.70;84.40;;;;;;5050140;28;20671;-61
2022/11/19 04:58:52;;;;;;;11.45;5.57;;;4.80;84.20;;;;;;5049025;28;20458;-59
2022/11/19 05:01:20;;;;;;;9.07;5.53;;;4.70;84.70;;;;;;5052457;28;20033;-63
2022/11/19 05:03:47;;;;;;;9.98;5.15;;;4.70;84.70;;;;;;5051876;28;20075;-64
2022/11/19 05:06:14;;;;;;;9.32;5.15;;;4.70;84.90;;;;;;5046475;28;20067;-62
2022/11/19 05:08:41;;;;;;;9.38;5.65;;;4.70;85.10;;;;;;5050924;28;20040;-62
2022/11/19 05:11:08;;;;;;;9.82;5.25;;;4.70;85.20;;;;;;5045206;28;20126;-61
2022/11/19 05:13:37;;;;;;;8.88;5.00;;;4.60;85.10;;;;;;5051476;28;20044;-61
2022/11/19 05:16:04;;;;;;;8.18;4.55;;;4.60;85.50;;;;;;5045198;28;20047;-61
2022/11/19 05:18:31;;;;;;;8.30;4.40;;;4.70;85.30;;;;;;5049834;28;20693;-61
2022/11/19 05:20:58;;;;;;;7.82;4.13;;;4.60;85.40;;;;;;5048519;28;20124;-66
2022/11/19 05:23:25;;;;;;;8.02;4.45;;;4.60;85.20;;;;;;5048393;28;20124;-64
2022/11/19 05:25:52;;;;;;;8.52;4.45;;;4.60;84.80;;;;;;5044330;28;20052;-64
2022/11/19 05:28:19;;;;;;;6.93;4.18;;;4.60;85.10;;;;;;5050160;28;20111;-64
2022/11/19 05:30:48;;;;;;;10.13;4.18;;;4.60;85.00;;;;;;5048250;28;20051;-65
2022/11/19 05:33:15;;;;;;;8.68;4.13;;;4.70;84.90;;;;;;5048311;28;20041;-64
2022/11/19 05:35:42;;;;;;;9.13;4.20;;;4.60;85.00;;;;;;5050630;28;20047;-68
2022/11/19 05:38:09;;;;;;;6.85;3.28;;;4.50;85.00;;;;;;5050593;28;20123;-68
2022/11/19 05:40:36;;;;;;;7.40;3.78;;;4.40;85.20;;;;;;5049649;28;20506;-70
2022/11/19 05:43:06;;;;;;;7.32;3.35;;;4.50;85.20;;;;;;5049928;28;20044;-69
2022/11/19 05:45:34;;;;;;;8.60;4.25;;;4.40;85.00;;;;;;5047603;28;20041;-69
2022/11/19 05:48:02;;;;;;;7.90;4.07;;;4.40;85.10;;;;;;5047238;28;20132;-68
2022/11/19 05:50:29;;;;;;;7.88;3.80;;;4.40;85.20;;;;;;5047121;28;20193;-67
2022/11/19 05:52:58;;;;;;;7.38;4.00;;;4.40;85.00;;;;;;5049037;28;20140;-68
2022/11/19 05:55:25;;;;;;;7.60;4.03;;;4.40;85.10;;;;;;5048092;28;20526;-67
2022/11/19 05:57:52;;;;;;;7.90;4.00;;;4.40;85.00;;;;;;5049196;28;20128;-69
2022/11/19 06:00:21;;;;;;;8.60;4.03;;;4.40;85.10;;;;;;5046537;28;20048;-66
2022/11/19 06:02:48;;;;;;;7.72;4.45;;;4.30;85.20;;;;;;5046605;28;20092;-67
2022/11/19 06:05:16;;;;;;;7.82;3.63;;;4.40;85.30;;;;;;5044130;28;20045;-68
2022/11/19 06:07:43;;;;;;;8.35;3.42;;;4.30;85.10;;;;;;5047946;28;20049;-69
2022/11/19 06:10:10;;;;;;;7.05;3.58;;;4.30;85.10;;;;;;5044083;28;20044;-67
2022/11/19 06:12:37;;;;;;;7.07;3.58;;;4.30;85.00;;;;;;5048646;28;20423;-68
2022/11/19 06:15:06;;;;;;;5.85;2.92;;;4.30;85.10;;;;;;5047752;28;20052;-66
2022/11/19 06:17:34;;;;;;;7.78;4.25;;;4.30;85.10;;;;;;5045675;28;20041;-68
2022/11/19 06:20:01;;;;;;;6.50;2.85;;;4.20;85.20;;;;;;5047630;28;20146;-66
2022/11/19 06:22:29;;;;;;;7.72;3.45;;;4.20;85.10;;;;;;5047055;28;20912;-65
2022/11/19 06:24:56;;;;;;;6.75;3.15;;;4.20;85.20;;;;;;5046602;28;20099;-66
2022/11/19 06:27:23;;;;;;;7.13;3.50;;;4.20;85.20;;;;;;5045253;28;20052;-66
2022/11/19 06:29:50;;;;;;;7.30;3.30;;;4.20;85.40;;;;;;5047076;28;20131;-65
2022/11/19 06:32:17;;;;;;;6.20;3.05;;;4.20;85.20;;;;;;5044863;28;20037;-64
2022/11/19 06:34:44;;;;;;;5.40;2.58;;;4.20;85.20;;;;;;5048442;28;20131;-67
2022/11/19 06:37:11;;;;;;;6.80;3.17;;;4.30;85.00;;;;;;5049640;28;20051;-65
2022/11/19 06:39:39;;;;;;;6.05;3.05;;;4.30;84.80;;;;;;5048441;28;20093;-64
2022/11/19 06:44:51;;;;;;;5.70;2.92;;;4.20;85.10;;;;;;5049092;28;20028;-67
2022/11/19 06:47:17;;;;;;;5.63;3.05;;;4.20;84.90;;;;;;5048775;28;20060;-67
2022/11/19 06:49:44;;;;;;;6.72;3.55;;;4.20;85.10;;;;;;5048236;28;20029;-68
2022/11/19 06:52:11;;;;;;;8.38;3.25;;;4.10;85.40;;;;;;5047801;28;20041;-67
2022/11/19 06:54:42;;;;;;;6.00;2.70;;;4.10;85.40;;;;;;5048159;28;20583;-67
2022/11/19 06:57:09;;;;;;;5.68;2.75;;;4.10;85.40;;;;;;5048883;28;20041;-61
2022/11/19 06:59:37;;;;;;;6.35;2.80;;;4.10;85.50;;;;;;5048703;28;20045;-61
2022/11/19 07:02:04;;;;;;;5.95;2.72;;;4.10;85.60;;;;;;5048740;28;20052;-61
2022/11/19 07:04:31;;;;;;;5.30;2.53;;;4.00;85.50;;;;;;5030416;28;20055;-61
2022/11/19 07:06:58;;;;;;;4.85;2.30;;;4.00;85.50;;;;;;5048707;28;20132;-60
2022/11/19 07:09:25;;;;;;;6.13;2.53;;;4.00;85.60;;;;;;5045518;28;20092;-60
2022/11/19 07:11:54;;;;;;;4.45;2.17;;;4.00;85.60;;;;;;5045490;28;20083;-65
2022/11/19 07:14:21;;;;;;;4.85;2.67;;;4.00;85.60;;;;;;5050048;28;20063;-66
2022/11/19 07:16:48;;;;;;;4.07;2.20;;;4.00;85.40;;;;;;5041666;28;20041;-65
2022/11/19 07:19:14;;;;;;;6.03;2.72;;;3.90;85.40;;;;;;5045644;28;20491;-65
2022/11/19 07:21:41;;;;;;;4.82;2.50;;;3.90;85.40;;;;;;5050212;28;20131;-59
2022/11/19 07:24:09;;;;;;;6.80;3.08;;;3.90;85.50;;;;;;5048991;28;20045;-61
2022/11/19 07:26:37;;;;;;;5.70;2.70;;;3.90;85.50;;;;;;5046625;28;20045;-61
2022/11/19 07:29:07;;;;;;;5.68;2.85;;;3.90;85.30;;;;;;5048321;28;20539;-61
2022/11/19 07:31:35;;;;;;;5.82;2.88;;;3.90;85.50;;;;;;5049865;28;20068;-65
2022/11/19 07:34:02;;;;;;;7.63;3.25;;;3.90;85.50;;;;;;5048740;28;20056;-64
2022/11/19 07:36:29;;;;;;;6.15;2.83;;;3.90;85.50;;;;;;5050791;28;20053;-64
2022/11/19 07:38:57;;;;;;;5.28;2.80;;;4.00;85.50;;;;;;5048259;28;20648;-64
2022/11/19 07:44:10;;;;;;;6.15;2.80;;;4.00;85.40;;;;;;5051338;28;20052;-64
2022/11/19 07:46:37;;;;;;;6.60;2.97;;;3.90;85.50;;;;;;5048944;28;20140;-61
2022/11/19 07:49:04;;;;;;;9.00;3.88;;;3.90;85.60;;;;;;5049663;28;20468;-61
2022/11/19 07:51:31;;;;;;;5.97;3.00;;;3.80;85.80;;;;;;5048489;28;20700;-60
2022/11/19 07:53:58;;;;;;;5.65;2.80;;;3.80;85.70;;;;;;5051457;28;20389;-61
2022/11/19 07:56:25;;;;;;;6.65;3.20;;;3.90;85.60;;;;;;5052021;28;20032;-61
2022/11/19 07:58:52;;;;;;;7.05;3.33;;;3.90;85.60;;;;;;5050169;28;20069;-60
2022/11/19 08:01:23;;;;;;;6.72;3.35;;;3.90;85.40;;;;;;5030088;28;20040;-68
2022/11/19 08:03:51;;;;;;;7.05;3.33;;;3.80;85.60;;;;;;5049018;28;20041;-66
2022/11/19 08:06:20;;;;;;;5.75;3.03;;;3.90;85.50;;;;;;5051450;28;20053;-67
2022/11/19 08:08:47;;;;;;;6.95;3.70;;;3.90;85.40;;;;;;5049806;28;20045;-65
2022/11/19 08:11:15;;;;;;;7.43;3.58;;;3.80;85.60;;;;;;5033238;28;20079;-65
2022/11/19 08:13:43;;;;;;;6.47;3.38;;;3.80;85.70;;;;;;5048917;28;20053;-66
2022/11/19 08:16:12;;;;;;;7.03;3.38;;;3.80;85.50;;;;;;5050153;28;20037;-60
2022/11/19 08:18:39;;;;;;;6.70;3.78;;;3.90;85.50;;;;;;5050905;28;20086;-61
2022/11/19 08:21:08;;;;;;;7.18;2.95;;;3.80;85.60;;;;;;5052483;28;20041;-74
2022/11/19 08:23:36;;;;;;;6.43;3.60;;;3.80;85.80;;;;;;5048640;28;20045;-74
2022/11/19 08:26:04;;;;;;;7.13;3.58;;;3.80;85.80;;;;;;5049409;28;20057;-61
2022/11/19 08:28:33;;;;;;;7.10;3.58;;;3.80;85.90;;;;;;5049800;28;20093;-60
2022/11/19 08:31:05;;;;;;;8.93;3.97;;;3.90;85.80;;;;;;5051305;28;20053;-74
2022/11/19 08:33:32;;;;;;;9.88;4.47;;;3.80;85.90;;;;;;5045820;28;20045;-74
2022/11/19 08:36:04;;;;;;;9.88;5.18;;;3.90;85.90;;;;;;5051616;28;20132;-60
2022/11/19 08:38:31;;;;;;;10.23;4.97;;;3.90;85.90;;;;;;5049173;28;20495;-59
2022/11/19 08:43:38;;;;;;;;;;;3.90;85.80;;;;;;5048256;28;20060;-62
2022/11/19 08:46:06;;;;;;;11.13;5.38;;;3.90;86.00;;;;;;5050338;28;19924;-63
2022/11/19 08:48:33;;;;;;;11.70;6.20;;;3.90;85.90;;;;;;5050728;28;20048;-62
2022/11/19 08:51:04;;;;;;;12.13;6.63;;;3.90;86.20;;;;;;5052197;28;20126;-64
2022/11/19 08:53:31;;;;;;;;;;;3.90;86.10;;;;;;5051669;28;20403;-62
2022/11/19 08:55:59;;;;;;;13.35;6.18;;;3.90;86.10;;;;;;5052624;28;19924;-64
2022/11/19 08:58:26;;;;;;;12.85;7.13;;;3.90;86.10;;;;;;5049690;28;20053;-65
2022/11/19 09:00:54;;;;;;;14.55;7.20;;;3.90;86.10;;;;;;5048889;28;20048;-65
2022/11/19 09:03:21;;;;;;;13.07;6.45;;;3.90;86.10;;;;;;5050965;28;20116;-64
2022/11/19 09:05:48;;;;;;;12.05;7.05;;;3.90;86.10;;;;;;5051993;28;20057;-65
2022/11/19 09:08:17;;;;;;;14.82;7.10;;;3.90;86.10;;;;;;5048462;28;20044;-64
2022/11/19 09:10:44;;;;;;;15.07;7.25;;;3.90;86.10;;;;;;5050579;28;20041;-65
2022/11/19 09:13:11;;;;;;;12.27;7.00;;;3.90;86.20;;;;;;5047555;28;20037;-65
2022/11/19 09:15:38;;;;;;;12.57;6.78;;;3.90;86.30;;;;;;5043922;28;20059;-62
2022/11/19 09:18:05;;;;;;;13.45;7.25;;;3.90;86.40;;;;;;5040386;28;20044;-63
2022/11/19 09:20:34;;;;;;;13.43;7.40;;;3.90;86.10;;;;;;5046471;28;20061;-73
2022/11/19 09:23:01;;;;;;;11.20;6.68;;;3.90;86.10;;;;;;5029340;28;20041;-73
2022/11/19 09:25:30;;;;;;;14.25;7.55;;;4.00;86.00;;;;;;5048445;28;20080;-74
2022/11/19 09:27:57;;;;;;;14.90;7.50;;;4.00;85.90;;;;;;5028916;28;20068;-74
2022/11/19 09:30:23;;;;;;;12.80;7.22;;;4.00;85.90;;;;;;5047489;28;20673;-61
2022/11/19 09:32:50;;;;;;;15.35;7.20;;;3.90;86.00;;;;;;5045464;28;20500;-61
2022/11/19 09:35:18;;;;;;;12.73;6.93;;;3.90;86.00;;;;;;5049376;28;20120;-64
2022/11/19 09:37:45;;;;;;;14.55;7.05;;;3.90;86.10;;;;;;5049344;28;20140;-63
2022/11/19 09:40:20;;;;;;;12.70;7.40;;;3.90;86.10;;;;;;5046066;28;20056;-63
2022/11/19 09:43:00;;;;;;;11.85;6.72;;;3.90;85.90;;;;;;5047025;28;20116;-72
2022/11/19 09:45:40;;;;;;;12.02;6.18;;;3.90;86.10;;;;;;5045805;28;20498;-63
2022/11/19 09:48:28;;;;;;;13.18;7.43;;;4.00;86.00;;;;;;5045550;28;20484;-64
2022/11/19 09:50:59;;;;;;;11.88;6.60;;;3.90;85.80;;;;;;5050517;28;20135;-63
2022/11/19 09:53:29;;;;;;;;;;;3.90;85.60;;;;;;5047830;28;20121;-62
2022/11/19 09:55:58;;;;;;;10.07;5.60;;;3.90;85.60;;;;;;5049839;28;19920;-63
2022/11/19 09:58:32;;;;;;;11.02;6.03;;;4.00;85.10;;;;;;5049806;28;20573;-63
2022/11/19 10:00:59;;;;;;;11.50;5.78;;;3.90;85.50;;;;;;5048483;28;20068;-61
2022/11/19 10:03:27;;;;;;;12.65;6.40;;;3.90;85.40;;;;;;5048846;28;20147;-60
2022/11/19 10:06:10;;;;;;;11.35;6.85;;;3.90;85.60;;;;;;5048068;28;20727;-63
2022/11/19 10:08:50;;;;;;;12.98;7.20;;;3.90;85.30;;;;;;5048214;28;20047;-61
2022/11/19 10:11:28;;;;;;;11.88;6.32;;;3.80;85.30;;;;;;5048021;28;20502;-73
2022/11/19 10:14:05;;;;;;;13.10;6.68;;;3.90;85.40;;;;;;5049233;28;20041;-73
2022/11/19 10:16:53;;;;;;;14.95;7.22;;;3.90;85.20;;;;;;5046664;28;20040;-74
2022/11/19 10:19:36;;;;;;;11.75;6.88;;;3.80;85.20;;;;;;5045354;28;20067;-73
2022/11/19 10:22:09;;;;;;;12.73;6.93;;;3.90;84.80;;;;;;5047797;28;20555;-74
2022/11/19 10:24:42;;;;;;;15.00;7.30;;;3.90;84.30;;;;;;5049021;28;20049;-73
2022/11/19 10:27:18;;;;;;;14.05;7.13;;;3.90;84.10;;;;;;5048696;28;20045;-64
2022/11/19 10:29:50;;;;;;;12.90;6.72;;;3.90;84.40;;;;;;5046190;28;20048;-64
2022/11/19 10:32:28;;;;;;;14.32;7.32;;;3.90;84.10;;;;;;5049291;28;20128;-61
2022/11/19 10:35:00;;;;;;;14.73;8.02;;;3.90;83.90;;;;;;5047458;28;20470;-60
2022/11/19 10:37:35;;;;;;;11.95;6.57;;;3.90;83.70;;;;;;5049676;28;20083;-61
2022/11/19 10:40:07;;;;;;;13.23;6.55;;;3.70;84.20;;;;;;5048662;28;20457;-61
2022/11/19 10:42:38;;;;;;;13.35;6.80;;;3.80;84.20;;;;;;5045980;28;20404;-61
2022/11/19 10:45:14;;;;;;;12.00;6.28;;;3.80;83.90;;;;;;5047938;28;20041;-61
2022/11/19 10:47:46;;;;;;;13.13;6.90;;;3.80;83.80;;;;;;5047728;28;20040;-61
2022/11/19 10:50:17;;;;;;;11.90;5.65;;;3.80;83.90;;;;;;5045876;28;20068;-60
2022/11/19 10:52:49;;;;;;;12.57;6.55;;;3.80;83.90;;;;;;5046945;28;20065;-61
2022/11/19 10:55:23;;;;;;;14.52;7.60;;;3.90;84.10;;;;;;5047880;28;20061;-61
2022/11/19 10:57:52;;;;;;;12.70;6.53;;;3.80;84.20;;;;;;5047480;28;20128;-60
2022/11/19 11:00:21;;;;;;;10.55;6.43;;;3.80;84.20;;;;;;5045909;28;20041;-60
2022/11/19 11:02:53;;;;;;;14.82;6.88;;;3.90;84.40;;;;;;5044608;28;20063;-60
2022/11/19 11:05:21;;;;;;;12.73;6.80;;;3.90;84.50;;;;;;5043316;28;20053;-61
2022/11/19 11:07:54;;;;;;;11.50;6.32;;;3.90;84.40;;;;;;5044585;28;20125;-60
2022/11/19 11:10:32;;;;;;;12.38;6.97;;;3.90;84.60;;;;;;5045775;28;20117;-61
2022/11/19 11:15:54;;;;;;;12.77;7.13;;;3.90;84.70;;;;;;5043729;28;20049;-63
2022/11/19 11:18:26;;;;;;;13.20;6.53;;;3.90;84.50;;;;;;5039694;28;20040;-63
2022/11/19 11:20:53;;;;;;;11.25;6.20;;;4.00;84.40;;;;;;5044369;28;21326;-63
2022/11/19 11:23:24;;;;;;;14.95;7.88;;;4.00;84.70;;;;;;5046434;28;20045;-64
2022/11/19 11:26:00;;;;;;;18.48;10.27;;;4.10;84.60;;;;;;5045788;28;20121;-68
2022/11/19 11:28:28;;;;;;;19.15;10.82;;;4.00;84.60;;;;;;5046894;28;20041;-68
2022/11/19 11:30:59;;;;;;;18.85;10.65;;;4.00;84.30;;;;;;5043350;28;20048;-62
2022/11/19 11:33:30;;;;;;;20.27;11.35;;;4.00;84.30;;;;;;5048380;28;20122;-63
2022/11/19 11:35:59;;;;;;;;;;;4.10;84.50;;;;;;5050595;28;20067;-63
2022/11/19 11:38:27;;;;;;;14.23;8.15;;;4.10;84.50;;;;;;5047292;28;20379;-63
2022/11/19 11:41:02;;;;;;;15.75;8.45;;;4.10;84.50;;;;;;5047446;28;20128;-73
2022/11/19 11:43:31;;;;;;;14.10;7.65;;;4.10;84.20;;;;;;5049148;28;20041;-73
2022/11/19 11:46:01;;;;;;;13.32;7.22;;;4.10;84.30;;;;;;5044231;28;20037;-60
2022/11/19 11:48:30;;;;;;;;;;;4.10;84.10;;;;;;5049401;28;20052;-61
2022/11/19 11:50:57;;;;;;;13.52;8.13;;;4.10;83.80;;;;;;5046685;28;19935;-73
2022/11/19 11:53:30;;;;;;;14.32;8.07;;;4.10;84.00;;;;;;5048686;28;20394;-73
2022/11/19 11:55:58;;;;;;;15.13;8.10;;;4.00;83.90;;;;;;5030175;28;20076;-62
2022/11/19 11:58:27;;;;;;;13.50;7.63;;;4.00;83.90;;;;;;5049770;28;20120;-64
2022/11/19 12:00:55;;;;;;;13.25;8.05;;;4.00;83.90;;;;;;5043074;28;20055;-61
2022/11/19 12:03:25;;;;;;;15.65;8.43;;;4.00;83.70;;;;;;5048253;28;20053;-61
2022/11/19 12:06:03;;;;;;;14.20;7.90;;;4.00;83.60;;;;;;5046869;28;20331;-61
2022/11/19 12:08:43;;;;;;;14.48;7.68;;;4.10;83.60;;;;;;5044871;28;20497;-61
2022/11/19 12:11:17;;;;;;;13.40;7.38;;;4.10;83.60;;;;;;5048824;28;20045;-67
2022/11/19 12:13:56;;;;;;;12.85;6.75;;;4.20;83.30;;;;;;5047048;28;20132;-67
2022/11/19 12:16:44;;;;;;;11.95;6.70;;;4.20;83.00;;;;;;5045652;28;20563;-67
2022/11/19 12:19:37;;;;;;;11.18;5.95;;;4.20;83.20;;;;;;5042970;28;20131;-67
2022/11/19 12:22:11;;;;;;;12.80;7.03;;;4.20;83.60;;;;;;5051955;28;20499;-74
2022/11/19 12:24:56;;;;;;;12.45;6.85;;;4.20;83.70;;;;;;5048722;28;20127;-71
2022/11/19 12:27:32;;;;;;;15.65;8.10;;;4.30;83.60;;;;;;5046555;28;20049;-61
2022/11/19 12:30:04;;;;;;;15.23;8.57;;;4.20;83.80;;;;;;5051604;28;20120;-62
2022/11/19 12:32:59;;;;;;;16.55;8.77;;;4.20;83.80;;;;;;5049218;28;20056;-62
2022/11/19 12:35:37;;;;;;;16.80;9.38;;;4.20;83.90;;;;;;5047696;28;20041;-74
2022/11/19 12:38:21;;;;;;;15.57;9.75;;;4.20;83.90;;;;;;5049101;28;20120;-72
2022/11/19 12:40:57;;;;;;;17.70;10.00;;;4.20;83.90;;;;;;5051734;28;20048;-62
2022/11/19 12:43:47;;;;;;;17.98;9.65;;;4.20;83.90;;;;;;5051625;28;20049;-61
2022/11/19 12:46:22;;;;;;;18.42;10.45;;;4.20;84.10;;;;;;5042944;28;20044;-63
2022/11/19 12:49:02;;;;;;;16.75;9.05;;;4.20;84.00;;;;;;5046713;28;20583;-63
2022/11/19 12:51:39;;;;;;;15.32;8.68;;;4.20;83.50;;;;;;5048648;28;20080;-61
2022/11/19 12:54:22;;;;;;;22.25;13.38;;;4.20;83.30;;;;;;5046729;28;20049;-62
2022/11/19 12:57:02;;;;;;;22.30;14.07;;;4.20;83.50;;;;;;5049590;28;20075;-63
2022/11/19 12:59:38;;;;;;;;;;;4.30;83.40;;;;;;5051339;28;20052;-64
2022/11/19 13:02:15;;;;;;;17.55;9.63;;;4.40;83.50;;;;;;5048670;28;20021;-63
2022/11/19 13:04:46;;;;;;;16.27;9.18;;;4.40;83.50;;;;;;5047328;28;20041;-62
2022/11/19 13:07:19;;;;;;;22.75;13.55;;;4.40;83.60;;;;;;5046420;28;20069;-61
2022/11/19 13:09:50;;;;;;;22.90;14.48;;;4.40;83.90;;;;;;5048526;28;20138;-62
2022/11/19 13:12:20;;;;;;;20.15;12.65;;;4.40;83.80;;;;;;5050011;28;20045;-64
2022/11/19 13:14:51;;;;;;;18.10;11.13;;;4.40;84.10;;;;;;5051815;28;20084;-65
2022/11/19 13:17:22;;;;;;;16.38;10.05;;;4.40;83.90;;;;;;5049681;28;20036;-60
2022/11/19 13:19:52;;;;;;;14.98;8.88;;;4.50;83.70;;;;;;5046075;28;20041;-61
2022/11/19 13:22:26;;;;;;;16.00;8.82;;;4.50;83.40;;;;;;5047916;28;20464;-61
2022/11/19 13:24:57;;;;;;;15.95;8.30;;;4.50;83.40;;;;;;5049725;28;20064;-60
2022/11/19 13:27:27;;;;;;;13.18;7.68;;;4.50;83.50;;;;;;5048382;28;20125;-72
2022/11/19 13:29:58;;;;;;;12.82;6.60;;;4.40;83.70;;;;;;5047400;28;20148;-73
2022/11/19 13:32:31;;;;;;;12.25;7.28;;;4.40;83.80;;;;;;5032923;28;20450;-63